createdAt,value
2022-10-14T00:01:11.829Z,172.07
2022-10-14T00:03:41.106Z,176.00
2022-10-14T00:06:11.239Z,175.77
2022-10-14T00:08:39.208Z,181.93
2022-10-14T00:11:10.009Z,181.77
2022-10-14T00:13:38.644Z,175.50
2022-10-14T00:16:08.203Z,180.32
2022-10-14T00:18:36.014Z,171.02
2022-10-14T00:21:03.997Z,170.52
2022-10-14T00:23:31.956Z,177.60
2022-10-14T00:26:00.138Z,172.38
2022-10-14T00:28:29.474Z,170.38
2022-10-14T00:30:58.767Z,163.35
2022-10-14T00:33:27.598Z,178.02
2022-10-14T00:35:56.708Z,170.93
2022-10-14T00:38:24.920Z,170.52
2022-10-14T00:40:53.840Z,171.48
2022-10-14T00:43:22.978Z,173.18
2022-10-14T00:45:52.520Z,168.55
2022-10-14T00:48:24.478Z,166.10
2022-10-14T00:50:56.603Z,174.40
2022-10-14T00:53:24.982Z,184.80
2022-10-14T00:55:52.866Z,182.20
2022-10-14T00:58:20.804Z,187.43
2022-10-14T01:00:49.161Z,182.68
2022-10-14T01:03:22.553Z,175.80
2022-10-14T01:05:55.871Z,171.25
2022-10-14T01:08:29.973Z,186.18
2022-10-14T01:11:04.888Z,183.68
2022-10-14T01:13:35.037Z,182.82
2022-10-14T01:16:15.008Z,177.77
2022-10-14T01:18:59.829Z,170.55
2022-10-14T01:21:33.541Z,179.70
2022-10-14T01:24:42.712Z,182.20
2022-10-14T01:27:21.014Z,177.70
2022-10-14T01:30:07.190Z,183.45
2022-10-14T01:32:39.995Z,188.32
2022-10-14T01:35:15.553Z,186.32
2022-10-14T01:37:49.066Z,194.70
2022-10-14T01:40:24.672Z,177.70
2022-10-14T01:42:55.747Z,184.02
2022-10-14T01:45:27.580Z,182.68
2022-10-14T01:47:56.989Z,195.90
2022-10-14T01:50:28.107Z,182.88
2022-10-14T01:53:01.950Z,187.27
2022-10-14T01:55:34.117Z,190.07
2022-10-14T01:58:03.151Z,194.48
2022-10-14T02:00:32.725Z,190.20
2022-10-14T02:03:00.593Z,185.32
2022-10-14T02:05:33.595Z,188.30
2022-10-14T02:08:10.964Z,187.10
2022-10-14T02:11:02.378Z,190.90
2022-10-14T02:13:43.092Z,191.95
2022-10-14T02:16:20.334Z,190.52
2022-10-14T02:18:53.709Z,189.60
2022-10-14T02:21:27.033Z,185.82
2022-10-14T02:24:00.314Z,190.82
2022-10-14T02:26:29.537Z,189.88
2022-10-14T02:28:58.600Z,177.35
2022-10-14T02:31:30.406Z,194.98
2022-10-14T02:34:02.009Z,199.55
2022-10-14T02:36:30.740Z,199.75
2022-10-14T02:39:04.525Z,189.75
2022-10-14T02:41:37.041Z,192.75
2022-10-14T02:44:06.975Z,186.98
2022-10-14T02:46:37.059Z,185.13
2022-10-14T02:49:05.162Z,194.70
2022-10-14T02:51:33.057Z,190.52
2022-10-14T02:54:02.392Z,197.52
2022-10-14T02:56:30.520Z,193.82
2022-10-14T02:58:58.429Z,192.63
2022-10-14T03:01:26.331Z,192.65
2022-10-14T03:03:56.002Z,195.10
2022-10-14T03:06:24.013Z,191.38
2022-10-14T03:08:52.110Z,202.30
2022-10-14T03:11:20.006Z,196.02
2022-10-14T03:13:47.949Z,214.23
2022-10-14T03:16:15.854Z,219.68
2022-10-14T03:18:43.678Z,197.38
2022-10-14T03:21:12.879Z,218.73
2022-10-14T03:23:40.800Z,212.38
2022-10-14T03:26:13.095Z,205.25
2022-10-14T03:28:42.168Z,193.27
2022-10-14T03:31:10.151Z,199.93
2022-10-14T03:33:38.886Z,198.07
2022-10-14T03:36:07.513Z,191.02
2022-10-14T03:38:37.151Z,188.05
2022-10-14T03:41:05.539Z,184.65
2022-10-14T03:43:33.712Z,179.90
2022-10-14T03:46:01.625Z,187.00
2022-10-14T03:48:29.472Z,194.38
2022-10-14T03:50:57.444Z,193.38
2022-10-14T03:53:25.346Z,193.40
2022-10-14T03:55:54.589Z,192.07
2022-10-14T03:58:22.444Z,196.20
2022-10-14T04:00:50.582Z,191.05
2022-10-14T04:03:18.572Z,191.00
2022-10-14T04:05:46.483Z,180.82
2022-10-14T04:08:14.310Z,182.18
2022-10-14T04:10:43.289Z,180.32
2022-10-14T04:13:12.659Z,192.50
2022-10-14T04:15:40.565Z,188.43
2022-10-14T04:18:08.686Z,186.80
2022-10-14T04:20:36.497Z,187.82
2022-10-14T04:23:04.686Z,187.38
2022-10-14T04:25:32.496Z,189.60
2022-10-14T04:28:00.603Z,193.77
2022-10-14T04:30:30.100Z,190.07
2022-10-14T04:32:58.136Z,190.57
2022-10-14T04:35:26.028Z,187.32
2022-10-14T04:37:54.137Z,189.93
2022-10-14T04:40:25.694Z,192.05
2022-10-14T04:42:57.277Z,192.90
2022-10-14T04:45:25.949Z,190.63
2022-10-14T04:47:55.156Z,195.23
2022-10-14T04:50:23.001Z,200.25
2022-10-14T04:52:51.138Z,192.88
2022-10-14T04:55:19.069Z,188.43
2022-10-14T04:57:46.984Z,190.45
2022-10-14T05:00:16.221Z,188.35
2022-10-14T05:02:44.192Z,198.23
2022-10-14T05:05:14.976Z,191.70
2022-10-14T05:07:43.267Z,193.13
2022-10-14T05:10:11.358Z,191.95
2022-10-14T05:12:40.195Z,195.13
2022-10-14T05:15:10.169Z,193.40
2022-10-14T05:17:39.270Z,192.55
2022-10-14T05:20:08.573Z,190.27
2022-10-14T05:22:37.864Z,194.75
2022-10-14T05:25:06.990Z,186.85
2022-10-14T05:27:35.126Z,192.90
2022-10-14T05:30:03.496Z,189.88
2022-10-14T05:32:31.509Z,192.55
2022-10-14T05:34:59.280Z,182.93
2022-10-14T05:37:27.155Z,190.07
2022-10-14T05:39:56.461Z,188.85
2022-10-14T05:42:25.270Z,191.45
2022-10-14T05:44:53.225Z,195.52
2022-10-14T05:47:21.056Z,187.98
2022-10-14T05:49:48.950Z,189.07
2022-10-14T05:52:16.952Z,193.80
2022-10-14T05:54:45.047Z,191.43
2022-10-14T05:57:14.504Z,186.43
2022-10-14T05:59:42.517Z,196.52
2022-10-14T06:02:11.437Z,191.07
2022-10-14T06:04:41.086Z,189.07
2022-10-14T06:07:10.369Z,189.30
2022-10-14T06:09:38.800Z,186.85
2022-10-14T06:12:07.138Z,195.10
2022-10-14T06:14:37.141Z,195.23
2022-10-14T06:17:05.071Z,187.90
2022-10-14T06:19:33.355Z,188.48
2022-10-14T06:22:01.633Z,189.88
2022-10-14T06:24:29.724Z,192.65
2022-10-14T06:26:58.505Z,192.32
2022-10-14T06:29:31.268Z,193.38
2022-10-14T06:32:00.502Z,201.90
2022-10-14T06:34:28.346Z,199.40
2022-10-14T06:37:01.250Z,194.15
2022-10-14T06:39:29.984Z,193.07
2022-10-14T06:41:57.911Z,194.85
2022-10-14T06:44:25.733Z,192.73
2022-10-14T06:46:53.534Z,195.07
2022-10-14T06:49:23.747Z,189.15
2022-10-14T06:51:51.650Z,195.40
2022-10-14T06:54:19.700Z,194.00
2022-10-14T06:56:47.605Z,194.38
2022-10-14T06:59:18.537Z,191.25
2022-10-14T07:01:46.478Z,192.57
2022-10-14T07:04:14.388Z,199.98
2022-10-14T07:06:43.635Z,189.98
2022-10-14T07:09:11.474Z,191.20
2022-10-14T07:11:39.279Z,185.30
2022-10-14T07:14:07.080Z,184.77
2022-10-14T07:16:35.272Z,189.57
2022-10-14T07:19:03.592Z,191.63
2022-10-14T07:21:31.693Z,184.30
2022-10-14T07:24:00.937Z,181.98
2022-10-14T07:26:31.421Z,176.57
2022-10-14T07:28:59.559Z,179.38
2022-10-14T07:31:27.758Z,186.40
2022-10-14T07:33:55.678Z,188.90
2022-10-14T07:36:23.501Z,183.93
2022-10-14T07:38:51.550Z,192.93
2022-10-14T07:41:24.596Z,194.35
2022-10-14T07:43:55.183Z,191.48
2022-10-14T07:46:29.800Z,192.90
2022-10-14T07:48:58.180Z,187.23
2022-10-14T07:51:26.497Z,185.63
2022-10-14T07:53:54.775Z,186.68
2022-10-14T07:56:24.354Z,181.45
2022-10-14T07:58:52.772Z,177.30
2022-10-14T08:01:21.834Z,176.10
2022-10-14T08:03:50.020Z,188.05
2022-10-14T08:06:20.972Z,190.70
2022-10-14T08:08:50.839Z,196.00
2022-10-14T08:11:20.919Z,193.45
2022-10-14T08:13:51.141Z,203.55
2022-10-14T08:16:22.155Z,197.10
2022-10-14T08:18:51.126Z,189.45
2022-10-14T08:21:20.985Z,198.70
2022-10-14T08:23:49.234Z,192.32
2022-10-14T08:26:24.214Z,197.18
2022-10-14T08:28:54.106Z,194.48
2022-10-14T08:31:22.620Z,193.98
2022-10-14T08:33:50.748Z,200.05
2022-10-14T08:36:20.201Z,202.05
2022-10-14T08:38:49.302Z,205.95
2022-10-14T08:41:48.152Z,200.50
2022-10-14T08:44:23.367Z,197.60
2022-10-14T08:46:53.951Z,198.13
2022-10-14T08:49:27.760Z,203.35
2022-10-14T08:52:01.247Z,204.23
2022-10-14T08:54:38.235Z,197.73
2022-10-14T08:59:42.643Z,199.00
2022-10-14T09:02:24.116Z,197.80
2022-10-14T09:04:52.277Z,194.77
2022-10-14T09:07:22.416Z,198.05
2022-10-14T09:09:54.601Z,187.07
2022-10-14T09:12:27.073Z,158.50
2022-10-14T09:15:04.615Z,162.15
2022-10-14T09:17:40.051Z,181.20
2022-10-14T09:20:18.459Z,189.32
2022-10-14T09:22:47.434Z,183.63
2022-10-14T09:25:17.519Z,198.30
2022-10-14T09:30:20.641Z,222.85
2022-10-14T09:32:51.052Z,199.50
2022-10-14T09:35:25.236Z,199.77
2022-10-14T09:37:54.279Z,196.73
2022-10-14T09:40:30.130Z,224.25
2022-10-14T09:43:04.227Z,201.02
2022-10-14T09:45:51.310Z,208.65
2022-10-14T09:48:25.016Z,202.63
2022-10-14T09:50:56.952Z,202.50
2022-10-14T09:53:29.808Z,204.02
2022-10-14T09:56:00.021Z,202.68
2022-10-14T09:58:33.016Z,200.90
2022-10-14T10:01:03.174Z,196.20
2022-10-14T10:03:33.797Z,196.80
2022-10-14T10:06:05.243Z,195.30
2022-10-14T10:08:34.377Z,197.82
2022-10-14T10:11:07.136Z,199.45
2022-10-14T10:13:41.680Z,208.40
2022-10-14T10:16:21.220Z,201.23
2022-10-14T10:18:49.430Z,203.00
2022-10-14T10:21:21.331Z,202.65
2022-10-14T10:23:57.827Z,201.85
2022-10-14T10:26:30.215Z,196.18
2022-10-14T10:28:59.299Z,199.10
2022-10-14T10:31:58.482Z,198.00
2022-10-14T10:34:58.286Z,199.18
2022-10-14T10:37:29.622Z,206.88
2022-10-14T10:40:18.655Z,201.18
2022-10-14T10:42:58.647Z,201.90
2022-10-14T10:45:41.527Z,196.63
2022-10-14T10:48:18.594Z,188.85
2022-10-14T10:50:57.879Z,178.00
2022-10-14T10:53:45.213Z,189.88
2022-10-14T10:56:22.846Z,192.57
2022-10-14T10:59:06.609Z,189.65
2022-10-14T11:01:50.223Z,191.55
2022-10-14T11:04:42.647Z,198.82
2022-10-14T11:07:40.526Z,195.43
2022-10-14T11:10:38.148Z,187.23
2022-10-14T11:13:18.771Z,206.60
2022-10-14T11:15:51.992Z,208.60
2022-10-14T11:18:28.116Z,198.85
2022-10-14T11:21:12.452Z,182.90
2022-10-14T11:24:00.769Z,188.10
2022-10-14T11:26:45.610Z,198.77
2022-10-14T11:29:29.734Z,207.93
2022-10-14T11:32:06.329Z,208.65
2022-10-14T11:34:44.417Z,212.15
2022-10-14T11:37:27.471Z,210.00
2022-10-14T11:40:04.623Z,210.30
2022-10-14T11:42:49.287Z,198.90
2022-10-14T11:45:46.968Z,204.50
2022-10-14T11:48:27.716Z,194.32
2022-10-14T11:51:14.423Z,190.45
2022-10-14T11:54:02.053Z,198.35
2022-10-14T11:56:38.863Z,199.23
2022-10-14T11:59:18.906Z,224.48
2022-10-14T12:01:52.360Z,189.65
2022-10-14T12:04:29.500Z,191.80
2022-10-14T12:07:06.146Z,181.07
2022-10-14T12:09:40.495Z,184.88
2022-10-14T12:12:12.933Z,179.55
2022-10-14T12:14:45.415Z,183.65
2022-10-14T12:17:22.230Z,170.63
2022-10-14T12:19:53.903Z,182.85
2022-10-14T12:22:31.840Z,186.70
2022-10-14T12:25:12.589Z,193.15
2022-10-14T12:27:41.265Z,203.15
2022-10-14T12:30:32.951Z,194.73
2022-10-14T12:33:09.243Z,193.80
2022-10-14T12:35:50.316Z,193.45
2022-10-14T12:38:21.605Z,197.05
2022-10-14T12:40:51.128Z,201.52
2022-10-14T12:43:36.147Z,197.65
2022-10-14T12:46:15.775Z,201.90
2022-10-14T12:48:57.748Z,186.32
2022-10-14T12:51:28.999Z,185.95
2022-10-14T12:54:10.340Z,200.68
2022-10-14T12:56:54.483Z,184.00
2022-10-14T12:59:27.835Z,193.82
2022-10-14T13:02:40.096Z,184.32
2022-10-14T13:05:31.546Z,188.93
2022-10-14T13:08:28.451Z,185.40
2022-10-14T13:11:28.534Z,186.20
2022-10-14T13:14:52.840Z,195.07
2022-10-14T13:17:49.142Z,187.38
2022-10-14T13:20:58.971Z,184.52
2022-10-14T13:23:48.629Z,194.40
2022-10-14T13:26:45.341Z,189.20
2022-10-14T13:29:51.824Z,177.35
2022-10-14T13:32:48.711Z,184.98
2022-10-14T13:35:45.149Z,194.73
2022-10-14T13:38:18.105Z,192.73
2022-10-14T13:40:55.223Z,201.20
2022-10-14T13:43:28.128Z,203.32
2022-10-14T13:46:18.134Z,197.95
2022-10-14T13:48:53.529Z,178.73
2022-10-14T13:51:36.750Z,187.82
2022-10-14T13:54:21.176Z,174.52
2022-10-14T13:57:28.964Z,164.50
2022-10-14T14:02:41.326Z,174.55
2022-10-14T14:05:17.380Z,184.18
2022-10-14T14:10:39.166Z,168.25
2022-10-14T14:13:14.517Z,177.63
2022-10-14T14:15:43.558Z,187.32
2022-10-14T14:18:49.095Z,192.27
2022-10-14T14:21:24.732Z,169.65
2022-10-14T14:23:54.438Z,166.27
2022-10-14T14:26:28.949Z,158.05
2022-10-14T14:28:57.415Z,167.95
2022-10-14T14:31:47.874Z,160.63
2022-10-14T14:34:21.863Z,176.80
2022-10-14T14:36:55.217Z,159.00
2022-10-14T14:39:28.753Z,159.20
2022-10-14T14:41:59.587Z,207.90
2022-10-14T14:44:30.121Z,172.90
2022-10-14T14:47:00.608Z,193.43
2022-10-14T14:49:33.493Z,169.88
2022-10-14T14:52:04.966Z,174.52
2022-10-14T14:54:33.537Z,160.35
2022-10-14T14:57:06.040Z,165.82
2022-10-14T14:59:38.171Z,158.32
2022-10-14T15:02:18.349Z,165.57
2022-10-14T15:04:49.852Z,145.23
2022-10-14T15:07:21.694Z,235.23
2022-10-14T15:09:53.043Z,263.35
2022-10-14T15:12:23.685Z,213.75
2022-10-14T15:14:53.867Z,205.88
2022-10-14T15:17:27.917Z,204.90
2022-10-14T15:19:57.824Z,205.13
2022-10-14T15:22:32.814Z,215.02
2022-10-14T15:25:05.086Z,211.18
2022-10-14T15:27:46.397Z,209.15
2022-10-14T15:30:19.379Z,204.13
2022-10-14T15:32:47.304Z,200.65
2022-10-14T15:35:18.786Z,209.70
2022-10-14T15:37:47.082Z,207.73
2022-10-14T15:40:17.752Z,210.60
2022-10-14T15:42:45.918Z,209.55
2022-10-14T15:45:14.262Z,210.43
2022-10-14T15:47:42.644Z,209.60
2022-10-14T15:50:17.610Z,210.85
2022-10-14T15:52:48.628Z,210.30
2022-10-14T15:55:19.625Z,207.88
2022-10-14T15:57:50.197Z,208.85
2022-10-14T16:00:19.278Z,210.40
2022-10-14T16:02:49.037Z,206.70
2022-10-14T16:05:20.605Z,211.38
2022-10-14T16:07:49.280Z,210.02
2022-10-14T16:10:19.060Z,216.18
2022-10-14T16:12:47.293Z,209.88
2022-10-14T16:15:29.108Z,216.18
2022-10-14T16:17:57.105Z,209.15
2022-10-14T16:20:27.000Z,214.40
2022-10-14T16:22:55.028Z,212.48
2022-10-14T16:25:26.296Z,213.38
2022-10-14T16:27:54.274Z,208.18
2022-10-14T16:30:24.007Z,213.43
2022-10-14T16:32:51.813Z,200.15
2022-10-14T16:35:19.626Z,203.32
2022-10-14T16:37:48.976Z,204.48
2022-10-14T16:40:16.977Z,226.27
2022-10-14T16:42:44.872Z,205.95
2022-10-14T16:45:13.063Z,197.32
2022-10-14T16:47:41.167Z,202.73
2022-10-14T16:50:10.869Z,199.68
2022-10-14T16:52:56.577Z,197.45
2022-10-14T16:55:25.810Z,197.25
2022-10-14T16:57:53.692Z,206.48
2022-10-14T17:00:21.597Z,196.77
2022-10-14T17:02:49.393Z,209.20
2022-10-14T17:05:17.355Z,203.70
2022-10-14T17:07:45.144Z,202.82
2022-10-14T17:10:13.075Z,206.27
2022-10-14T17:12:42.396Z,201.77
2022-10-14T17:15:11.086Z,203.23
2022-10-14T17:17:40.054Z,200.95
2022-10-14T17:20:09.275Z,201.45
2022-10-14T17:22:37.200Z,199.88
2022-10-14T17:25:07.668Z,195.25
2022-10-14T17:27:35.484Z,200.93
2022-10-14T17:30:05.852Z,197.35
2022-10-14T17:32:33.652Z,197.88
2022-10-14T17:35:01.514Z,197.57
2022-10-14T17:37:29.698Z,204.70
2022-10-14T17:39:57.693Z,196.60
2022-10-14T17:42:26.702Z,200.63
2022-10-14T17:44:54.549Z,197.68
2022-10-14T17:47:24.376Z,201.50
2022-10-14T17:49:52.391Z,198.85
2022-10-14T17:52:20.222Z,205.55
2022-10-14T17:54:48.229Z,198.27
2022-10-14T17:57:16.205Z,202.88
2022-10-14T17:59:44.191Z,197.23
2022-10-14T18:02:18.647Z,198.55
2022-10-14T18:04:48.200Z,196.07
2022-10-14T18:07:17.034Z,202.15
2022-10-14T18:09:44.868Z,202.57
2022-10-14T18:12:12.747Z,195.85
2022-10-14T18:14:41.275Z,201.98
2022-10-14T18:17:12.939Z,208.60
2022-10-14T18:19:42.184Z,195.52
2022-10-14T18:22:12.101Z,197.88
2022-10-14T18:24:39.967Z,198.45
2022-10-14T18:27:08.018Z,198.98
2022-10-14T18:29:36.159Z,209.35
2022-10-14T18:32:04.247Z,204.20
2022-10-14T18:34:32.626Z,199.55
2022-10-14T18:37:00.497Z,191.48
2022-10-14T18:39:30.009Z,197.95
2022-10-14T18:41:57.889Z,195.00
2022-10-14T18:44:25.904Z,197.70
2022-10-14T18:46:53.861Z,204.68
2022-10-14T18:49:22.024Z,200.25
2022-10-14T18:51:50.027Z,201.90
2022-10-14T18:54:20.788Z,195.18
2022-10-14T18:56:53.089Z,203.63
2022-10-14T18:59:23.059Z,197.00
2022-10-14T19:01:53.477Z,207.00
2022-10-14T19:04:23.687Z,198.88
2022-10-14T19:06:52.036Z,201.88
2022-10-14T19:09:22.251Z,201.38
2022-10-14T19:11:57.434Z,203.85
2022-10-14T19:14:27.052Z,198.88
2022-10-14T19:16:54.924Z,200.55
2022-10-14T19:19:22.801Z,206.85
2022-10-14T19:21:56.386Z,198.02
2022-10-14T19:24:24.228Z,193.35
2022-10-14T19:26:57.034Z,205.13
2022-10-14T19:29:26.268Z,201.00
2022-10-14T19:31:54.640Z,197.88
2022-10-14T19:34:26.695Z,192.35
2022-10-14T19:36:55.572Z,203.25
2022-10-14T19:39:23.402Z,195.20
2022-10-14T19:41:51.486Z,196.45
2022-10-14T19:44:21.006Z,195.18
2022-10-14T19:46:48.930Z,193.68
2022-10-14T19:49:18.490Z,195.27
2022-10-14T19:51:46.616Z,193.70
2022-10-14T19:54:15.100Z,199.75
2022-10-14T19:56:43.874Z,191.63
2022-10-14T19:59:13.569Z,196.52
2022-10-14T20:01:43.159Z,192.32
2022-10-14T20:04:11.175Z,195.95
2022-10-14T20:06:40.153Z,185.65
2022-10-14T20:09:09.488Z,184.63
2022-10-14T20:11:37.287Z,185.63
2022-10-14T20:14:05.206Z,183.52
2022-10-14T20:16:33.077Z,186.85
2022-10-14T20:19:02.389Z,187.00
2022-10-14T20:21:31.036Z,183.68
2022-10-14T20:23:59.132Z,183.75
2022-10-14T20:26:27.015Z,182.90
2022-10-14T20:28:54.955Z,185.00
2022-10-14T20:31:25.350Z,180.73
2022-10-14T20:33:53.200Z,178.02
2022-10-14T20:36:23.681Z,184.88
2022-10-14T20:38:52.337Z,181.10
2022-10-14T20:41:22.292Z,181.02
2022-10-14T20:43:51.660Z,178.98
2022-10-14T20:46:19.773Z,179.93
2022-10-14T20:48:47.890Z,178.48
2022-10-14T20:51:18.016Z,178.05
2022-10-14T20:53:47.313Z,179.43
2022-10-14T20:56:15.725Z,179.57
2022-10-14T20:58:43.804Z,179.30
2022-10-14T21:01:13.877Z,190.55
2022-10-14T21:03:43.448Z,179.05
2022-10-14T21:06:14.701Z,182.98
2022-10-14T21:08:42.869Z,185.63
2022-10-14T21:11:15.649Z,182.43
2022-10-14T21:13:45.190Z,187.20
2022-10-14T21:16:17.955Z,181.25
2022-10-14T21:18:46.962Z,184.88
2022-10-14T21:21:16.828Z,183.90
2022-10-14T21:23:46.752Z,183.20
2022-10-14T21:26:16.203Z,182.00
2022-10-14T21:28:44.443Z,187.00
2022-10-14T21:31:17.338Z,183.73
2022-10-14T21:33:47.573Z,182.20
2022-10-14T21:36:16.982Z,180.82
2022-10-14T21:38:45.491Z,192.43
2022-10-14T21:41:14.997Z,182.68
2022-10-14T21:43:43.095Z,186.00
2022-10-14T21:46:12.436Z,190.55
2022-10-14T21:48:41.587Z,184.90
2022-10-14T21:51:11.576Z,186.50
2022-10-14T21:53:41.441Z,185.50
2022-10-14T21:56:10.604Z,188.52
2022-10-14T21:58:40.684Z,192.75
2022-10-14T22:01:11.048Z,184.77
2022-10-14T22:03:39.691Z,188.10
2022-10-14T22:06:10.375Z,190.13
2022-10-14T22:08:40.207Z,189.45
2022-10-14T22:11:15.430Z,191.55
2022-10-14T22:13:44.612Z,190.07
2022-10-14T22:16:13.641Z,194.30
2022-10-14T22:18:44.828Z,191.45
2022-10-14T22:21:13.369Z,199.40
2022-10-14T22:23:41.167Z,191.15
2022-10-14T22:26:10.716Z,194.02
2022-10-14T22:28:38.784Z,198.32
2022-10-14T22:31:09.643Z,200.18
2022-10-14T22:33:38.407Z,198.80
2022-10-14T22:36:08.492Z,197.80
2022-10-14T22:38:37.420Z,185.93
2022-10-14T22:41:06.461Z,196.75
2022-10-14T22:43:35.109Z,191.43
2022-10-14T22:46:04.513Z,191.07
2022-10-14T22:48:34.897Z,198.95
2022-10-14T22:51:04.620Z,192.10
2022-10-14T22:53:33.241Z,204.85
2022-10-14T22:56:01.420Z,194.05
2022-10-14T22:58:29.936Z,193.10
2022-10-14T23:00:58.136Z,197.95
2022-10-14T23:03:27.277Z,205.00
2022-10-14T23:06:00.852Z,195.40
2022-10-14T23:08:28.748Z,198.13
2022-10-14T23:10:56.650Z,194.68
2022-10-14T23:13:24.481Z,202.27
2022-10-14T23:15:59.989Z,191.90
2022-10-14T23:18:30.156Z,197.98
2022-10-14T23:20:59.449Z,194.38
2022-10-14T23:23:27.270Z,200.38
2022-10-14T23:25:55.088Z,199.77
2022-10-14T23:28:22.989Z,195.35
2022-10-14T23:30:50.862Z,188.23
2022-10-14T23:33:18.785Z,192.93
2022-10-14T23:35:46.766Z,198.00
2022-10-14T23:38:16.212Z,188.10
2022-10-14T23:40:44.433Z,192.55
2022-10-14T23:43:12.216Z,188.60
2022-10-14T23:45:40.068Z,188.00
2022-10-14T23:48:08.113Z,192.10
2022-10-14T23:50:35.953Z,191.73
2022-10-14T23:53:04.146Z,197.77
2022-10-14T23:55:33.516Z,193.07
2022-10-14T23:58:01.606Z,191.73
